Time;durP1;ratioP1;P1;durP2;ratioP2;P2;SDS_P1;SDS_P2;PMS_P1;PMS_P2;Temp;Humidity;BMP_temperature;BMP_pressure;BME280_temperature;BME280_humidity;BME280_pressure;Samples;Min_cycle;Max_cycle;Signal;HPM_P1;HPM_P2
2022/09/22 00:01:36;;;;;;;3.97;3.67;;;10.90;98.70;;;;;;10399185;28;20277;-77
2022/09/22 00:06:42;;;;;;;4.00;3.70;;;10.90;98.20;;;;;;10401948;28;20249;-78
2022/09/22 00:11:46;;;;;;;4.10;3.80;;;10.90;98.60;;;;;;10399524;28;20222;-78
2022/09/22 00:16:50;;;;;;;4.60;3.53;;;;;;;;;;10403151;28;20226;-78
2022/09/22 00:21:53;;;;;;;4.33;3.63;;;10.80;99.90;;;;;;10387797;28;20194;-78
2022/09/22 00:26:57;;;;;;;3.87;3.60;;;10.70;99.90;;;;;;10402626;28;20245;-78
2022/09/22 00:32:01;;;;;;;2.70;2.60;;;10.70;99.90;;;;;;10397833;28;20222;-78
2022/09/22 00:37:03;;;;;;;3.97;3.67;;;10.60;99.90;;;;;;10403679;28;20228;-78
2022/09/22 00:42:06;;;;;;;3.40;3.20;;;10.60;99.90;;;;;;10400375;28;20547;-77
2022/09/22 00:47:19;;;;;;;3.57;3.37;;;10.60;99.90;;;;;;10378942;28;20773;-77
2022/09/22 00:52:24;;;;;;;4.13;3.87;;;10.60;99.90;;;;;;10397751;28;20223;-78
2022/09/22 00:57:31;;;;;;;3.40;3.20;;;10.60;99.90;;;;;;10378615;28;20219;-77
2022/09/22 01:02:34;;;;;;;4.00;3.30;;;10.60;99.90;;;;;;10391648;28;20260;-78
2022/09/22 01:07:37;;;;;;;3.27;3.10;;;10.60;99.90;;;;;;10395370;28;20222;-77
2022/09/22 01:12:54;;;;;;;4.20;3.80;;;10.50;99.90;;;;;;10400449;28;20221;-78
2022/09/22 01:18:09;;;;;;;3.70;3.40;;;10.60;99.90;;;;;;10396736;28;20225;-78
2022/09/22 01:23:46;;;;;;;4.23;3.00;;;10.50;99.90;;;;;;10383826;28;20198;-78
2022/09/22 01:29:18;;;;;;;3.87;3.67;;;10.50;99.90;;;;;;10391459;28;20231;-78
2022/09/22 01:34:29;;;;;;;3.67;3.47;;;10.50;99.90;;;;;;10407621;28;20272;-78
2022/09/22 01:39:38;;;;;;;3.80;3.60;;;10.50;99.90;;;;;;10386647;28;20694;-78
2022/09/22 01:44:48;;;;;;;6.57;5.70;;;10.50;99.90;;;;;;10407813;28;20197;-78
2022/09/22 01:49:56;;;;;;;28.87;16.10;;;10.40;99.90;;;;;;10384128;28;20249;-77
2022/09/22 01:55:02;;;;;;;3.67;3.43;;;10.40;99.90;;;;;;10405862;28;20594;-78
2022/09/22 02:00:08;;;;;;;3.97;3.77;;;10.40;99.90;;;;;;10396239;28;20262;-77
2022/09/22 02:05:22;;;;;;;3.20;3.00;;;10.30;99.90;;;;;;10376555;28;20569;-77
2022/09/22 02:10:31;;;;;;;4.03;3.73;;;10.30;98.70;;;;;;10405509;28;20214;-77
2022/09/22 02:20:55;;;;;;;3.87;3.57;;;10.20;99.30;;;;;;10407762;28;20280;-77
2022/09/22 02:26:00;;;;;;;3.70;3.50;;;10.10;99.50;;;;;;10374341;28;20214;-77
2022/09/22 02:31:05;;;;;;;3.87;3.60;;;10.10;99.80;;;;;;10390233;28;20218;-77
2022/09/22 02:36:23;;;;;;;3.60;3.40;;;10.10;99.60;;;;;;10356698;28;20671;-77
2022/09/22 02:41:32;;;;;;;4.00;3.70;;;10.10;99.90;;;;;;10408082;28;20186;-77
2022/09/22 02:46:40;;;;;;;4.10;3.90;;;10.10;98.60;;;;;;10372141;28;20218;-77
2022/09/22 02:51:45;;;;;;;4.30;4.03;;;10.10;99.40;;;;;;10411041;28;20220;-78
2022/09/22 02:56:47;;;;;;;5.50;5.00;;;10.00;99.80;;;;;;10395331;28;20214;-77
2022/09/22 03:01:49;;;;;;;4.30;3.90;;;10.00;99.50;;;;;;10379441;28;20198;-77
2022/09/22 03:06:53;;;;;;;4.73;4.53;;;9.90;99.90;;;;;;10418878;28;20213;-78
2022/09/22 03:11:55;;;;;;;5.00;4.43;;;9.90;99.90;;;;;;10362120;28;20671;-78
2022/09/22 03:16:57;;;;;;;4.60;4.30;;;9.90;99.90;;;;;;10433288;22;20316;-79
2022/09/22 03:22:00;;;;;;;13.27;9.70;;;9.90;99.90;;;;;;10462129;28;20733;-80
2022/09/22 03:27:02;;;;;;;7.80;6.13;;;9.90;99.90;;;;;;10416392;28;20210;-80
2022/09/22 03:32:04;;;;;;;10.30;8.03;;;9.90;99.90;;;;;;10421266;28;20216;-78
2022/09/22 03:37:08;;;;;;;13.07;9.50;;;9.90;99.90;;;;;;10384697;28;20574;-78
2022/09/22 03:42:10;;;;;;;18.23;12.47;;;9.90;99.90;;;;;;10419666;28;20273;-80
2022/09/22 03:47:12;;;;;;;7.93;7.10;;;9.90;99.90;;;;;;10387754;28;20215;-80
2022/09/22 03:52:15;;;;;;;6.43;6.03;;;9.90;99.90;;;;;;10423679;28;20273;-80
2022/09/22 03:57:18;;;;;;;6.30;5.80;;;9.90;99.90;;;;;;10405027;28;20218;-78
2022/09/22 04:02:20;;;;;;;12.60;8.73;;;9.90;99.90;;;;;;10380051;28;20607;-77
2022/09/22 04:07:23;;;;;;;5.60;5.30;;;9.80;99.90;;;;;;10411831;28;20253;-77
2022/09/22 04:12:25;;;;;;;6.87;6.37;;;9.90;99.90;;;;;;10398350;28;20217;-78
2022/09/22 04:17:27;;;;;;;7.20;6.50;;;9.80;99.90;;;;;;10410792;28;20225;-78
2022/09/22 04:22:31;;;;;;;6.27;5.87;;;9.80;99.90;;;;;;10384596;28;20199;-77
2022/09/22 04:27:33;;;;;;;6.97;6.47;;;9.70;99.90;;;;;;10419514;28;20243;-77
2022/09/22 04:32:35;;;;;;;6.50;6.10;;;9.70;99.90;;;;;;10396971;28;20257;-78
2022/09/22 04:37:38;;;;;;;5.93;5.53;;;9.70;99.90;;;;;;10379251;28;20302;-78
2022/09/22 04:42:40;;;;;;;6.63;6.23;;;9.70;99.90;;;;;;10408489;28;20237;-77
2022/09/22 04:47:44;;;;;;;5.17;4.77;;;9.70;99.90;;;;;;10387850;28;20705;-78
2022/09/22 04:52:49;;;;;;;6.30;5.77;;;9.70;99.90;;;;;;10410026;28;20586;-78
2022/09/22 04:57:53;;;;;;;7.23;6.70;;;9.70;99.90;;;;;;10411172;28;20281;-77
2022/09/22 05:02:56;;;;;;;6.33;5.90;;;9.60;99.90;;;;;;10384164;28;20281;-78
2022/09/22 05:07:59;;;;;;;7.00;6.60;;;9.60;99.90;;;;;;10404919;28;20214;-76
2022/09/22 05:13:01;;;;;;;6.10;5.80;;;9.60;99.90;;;;;;10400016;28;20206;-77
2022/09/22 05:18:03;;;;;;;6.73;6.33;;;9.60;99.90;;;;;;10356342;28;20226;-77
2022/09/22 05:23:07;;;;;;;5.70;5.40;;;9.60;99.90;;;;;;10403090;28;20198;-77
2022/09/22 05:28:09;;;;;;;7.57;7.17;;;9.60;99.90;;;;;;10385234;28;20230;-78
2022/09/22 05:33:11;;;;;;;7.03;6.63;;;9.60;99.90;;;;;;10403912;28;20316;-77
2022/09/22 05:38:15;;;;;;;6.57;6.17;;;9.60;99.90;;;;;;10380640;28;20408;-78
2022/09/22 05:43:17;;;;;;;7.40;6.70;;;9.60;99.90;;;;;;10400055;28;20206;-77
2022/09/22 05:48:19;;;;;;;7.00;6.60;;;9.70;99.90;;;;;;10380778;28;20242;-77
2022/09/22 05:53:22;;;;;;;17.40;13.50;;;9.70;99.90;;;;;;10396503;28;20309;-77
2022/09/22 05:58:24;;;;;;;19.70;16.47;;;9.70;99.90;;;;;;10409444;28;20232;-77
2022/09/22 06:03:26;;;;;;;10.13;9.20;;;9.70;99.90;;;;;;10392780;28;20207;-78
2022/09/22 06:08:30;;;;;;;10.80;7.67;;;9.80;99.90;;;;;;10404806;28;20310;-78
2022/09/22 06:13:32;;;;;;;8.90;8.20;;;9.80;99.90;;;;;;10391911;28;20289;-79
2022/09/22 06:18:34;;;;;;;20.13;15.70;;;9.80;99.90;;;;;;10406240;28;20224;-80
2022/09/22 06:23:37;;;;;;;8.60;7.93;;;9.80;99.90;;;;;;10392559;28;20199;-79
2022/09/22 06:28:39;;;;;;;8.50;8.00;;;9.90;99.90;;;;;;10404719;28;20218;-77
2022/09/22 06:33:47;;;;;;;8.33;7.73;;;9.90;99.90;;;;;;10394660;28;20206;-79
2022/09/22 06:38:51;;;;;;;8.07;7.40;;;9.90;99.90;;;;;;10402390;28;20222;-77
2022/09/22 06:43:54;;;;;;;13.50;8.10;;;10.00;99.90;;;;;;10391810;28;20763;-78
2022/09/22 06:48:57;;;;;;;8.23;7.63;;;10.00;99.90;;;;;;10401465;28;20218;-79
2022/09/22 06:54:02;;;;;;;8.20;7.67;;;10.00;99.90;;;;;;10393403;28;20346;-79
2022/09/22 06:59:11;;;;;;;8.20;7.53;;;10.10;99.90;;;;;;10384655;28;20225;-78
2022/09/22 07:04:13;;;;;;;9.60;8.90;;;10.10;99.90;;;;;;10403081;28;20202;-79
2022/09/22 07:09:17;;;;;;;8.50;7.80;;;10.20;99.90;;;;;;10391745;28;20238;-79
2022/09/22 07:14:21;;;;;;;10.13;9.33;;;10.20;99.90;;;;;;10399959;28;20255;-80
2022/09/22 07:19:23;;;;;;;9.80;9.00;;;10.30;99.90;;;;;;10390922;28;20232;-79
2022/09/22 07:24:26;;;;;;;10.53;9.73;;;10.40;99.90;;;;;;10409678;28;20262;-79
2022/09/22 07:29:28;;;;;;;8.33;7.83;;;10.50;99.90;;;;;;10399972;28;20214;-79
2022/09/22 07:34:31;;;;;;;11.73;10.87;;;10.60;99.90;;;;;;10402417;28;20249;-79
2022/09/22 07:39:34;;;;;;;9.77;9.07;;;10.70;99.90;;;;;;10400634;28;20229;-79
2022/09/22 07:49:56;;;;;;;13.63;12.63;;;10.90;99.90;;;;;;10391679;28;20214;-78
2022/09/22 07:54:59;;;;;;;14.60;13.23;;;11.00;99.90;;;;;;10400557;28;20210;-78
2022/09/22 08:00:02;;;;;;;14.13;12.77;;;11.20;99.90;;;;;;10406952;28;20209;-78
2022/09/22 08:05:15;;;;;;;20.73;12.73;;;11.30;99.90;;;;;;10398757;28;20194;-77
2022/09/22 08:10:19;;;;;;;12.90;11.70;;;11.40;99.90;;;;;;10408189;28;20332;-77
2022/09/22 08:15:22;;;;;;;14.40;13.00;;;11.60;99.90;;;;;;10397321;28;20222;-78
2022/09/22 08:20:25;;;;;;;12.83;11.50;;;11.70;99.90;;;;;;10403681;28;20279;-77
2022/09/22 08:25:28;;;;;;;14.23;12.80;;;11.80;99.90;;;;;;10393641;28;20194;-77
2022/09/22 08:30:30;;;;;;;12.00;8.80;;;12.00;99.90;;;;;;10403378;28;20241;-77
2022/09/22 08:35:33;;;;;;;10.03;9.13;;;12.10;99.90;;;;;;10394707;28;20215;-77
2022/09/22 08:40:37;;;;;;;13.77;12.47;;;12.30;99.90;;;;;;10402311;28;20244;-77
2022/09/22 08:45:43;;;;;;;13.70;12.50;;;12.40;99.90;;;;;;10388130;28;20191;-77
2022/09/22 08:56:31;;;;;;;9.13;8.33;;;12.60;99.90;;;;;;10397102;28;20225;-77
2022/09/22 09:01:51;;;;;;;6.83;6.43;;;12.70;99.90;;;;;;10386042;28;20197;-77
2022/09/22 09:06:58;;;;;;;8.50;8.00;;;12.90;99.30;;;;;;10404403;28;20218;-77
2022/09/22 09:12:28;;;;;;;7.70;7.10;;;13.00;99.00;;;;;;10385703;28;20211;-77
2022/09/22 09:17:32;;;;;;;6.73;6.43;;;13.10;99.00;;;;;;10408183;28;20709;-79
2022/09/22 09:22:40;;;;;;;6.30;5.90;;;13.20;98.20;;;;;;10386701;28;20198;-79
2022/09/22 09:27:47;;;;;;;6.30;5.90;;;13.30;97.90;;;;;;10397634;28;20737;-79
2022/09/22 09:32:52;;;;;;;6.63;6.13;;;13.50;97.60;;;;;;10385761;28;20257;-78
2022/09/22 09:37:57;;;;;;;6.47;6.17;;;13.70;97.30;;;;;;10414076;28;20292;-79
2022/09/22 09:43:04;;;;;;;6.87;6.37;;;14.00;96.00;;;;;;10384564;28;20620;-78
2022/09/22 09:48:16;;;;;;;6.30;6.00;;;14.40;95.70;;;;;;10414863;28;20616;-78
2022/09/22 09:53:32;;;;;;;5.73;5.40;;;14.70;94.50;;;;;;10386928;28;20222;-76
2022/09/22 10:04:21;;;;;;;6.73;6.43;;;15.20;93.80;;;;;;10415637;28;20642;-78
2022/09/22 10:09:26;;;;;;;6.10;5.80;;;15.30;94.00;;;;;;10379227;28;20240;-79
2022/09/22 10:14:33;;;;;;;5.73;5.50;;;15.30;93.80;;;;;;10422926;28;20313;-78
2022/09/22 10:19:35;;;;;;;6.03;5.43;;;15.20;93.20;;;;;;10377624;28;20219;-79
2022/09/22 10:24:37;;;;;;;6.50;6.10;;;15.20;93.20;;;;;;10414578;28;20280;-79
2022/09/22 10:29:41;;;;;;;4.60;4.30;;;15.20;94.00;;;;;;10378124;28;20623;-78
2022/09/22 10:34:45;;;;;;;5.47;5.27;;;15.10;94.50;;;;;;10416946;28;20301;-78
2022/09/22 10:39:49;;;;;;;5.40;5.17;;;15.00;93.50;;;;;;10377568;28;20245;-79
2022/09/22 10:44:56;;;;;;;5.37;4.80;;;15.00;93.00;;;;;;10417926;28;20197;-78
2022/09/22 10:50:24;;;;;;;4.40;4.20;;;15.10;90.80;;;;;;10383720;28;20217;-79
2022/09/22 10:55:29;;;;;;;5.33;5.13;;;15.00;92.80;;;;;;10418669;28;20210;-77
2022/09/22 11:00:35;;;;;;;5.40;5.20;;;15.10;92.00;;;;;;10413372;28;20214;-79
2022/09/22 11:17:11;;;;;;;5.40;5.10;;;15.10;92.70;;;;;;10385704;28;20225;-79
2022/09/22 11:22:38;;;;;;;7.23;6.70;;;15.10;92.30;;;;;;10398874;28;20277;-78
2022/09/22 11:27:55;;;;;;;6.67;6.30;;;15.20;91.00;;;;;;10392362;28;20682;-79
2022/09/22 11:33:24;;;;;;;19.97;17.87;;;15.30;90.70;;;;;;10400447;28;20245;-80
2022/09/22 11:38:48;;;;;;;5.13;4.83;;;15.30;92.20;;;;;;10404472;28;20328;-77
2022/09/22 11:44:35;;;;;;;6.83;6.43;;;15.30;92.10;;;;;;10397388;28;20580;-79
2022/09/22 11:49:54;;;;;;;4.77;4.47;;;15.40;91.10;;;;;;10396016;28;20221;-79
2022/09/22 11:55:17;;;;;;;5.50;5.10;;;15.40;92.40;;;;;;10391877;28;20651;-78
2022/09/22 12:00:21;;;;;;;3.57;3.37;;;15.40;91.30;;;;;;10417066;28;20300;-79
2022/09/22 12:05:29;;;;;;;5.03;4.83;;;15.40;91.00;;;;;;10387119;28;20190;-78
2022/09/22 12:10:34;;;;;;;5.93;5.60;;;15.50;90.20;;;;;;10419002;28;20214;-77
2022/09/22 12:15:45;;;;;;;4.90;4.70;;;15.60;87.20;;;;;;10392739;28;20241;-76
2022/09/22 12:20:57;;;;;;;6.10;5.80;;;15.70;85.70;;;;;;10431205;28;20196;-77
2022/09/22 12:26:03;;;;;;;5.50;5.30;;;15.70;89.30;;;;;;10396374;28;20702;-78
2022/09/22 12:31:09;;;;;;;5.73;5.43;;;15.70;87.00;;;;;;10419163;28;20205;-77
2022/09/22 12:36:13;;;;;;;4.57;4.37;;;15.80;88.60;;;;;;10382212;28;20239;-78
2022/09/22 12:41:18;;;;;;;4.13;4.03;;;15.70;89.40;;;;;;10418108;28;20303;-79
2022/09/22 12:46:26;;;;;;;4.90;4.70;;;15.80;84.30;;;;;;10381096;28;20330;-79
2022/09/22 12:51:32;;;;;;;5.20;5.00;;;15.80;88.80;;;;;;10417355;28;20229;-78
2022/09/22 12:56:45;;;;;;;5.50;5.30;;;15.80;87.90;;;;;;10393314;28;20784;-79
2022/09/22 13:02:16;;;;;;;5.77;5.47;;;15.90;84.20;;;;;;10380842;28;20269;-78
2022/09/22 13:07:38;;;;;;;5.53;5.03;;;15.90;85.70;;;;;;10342182;28;20298;-78
2022/09/22 13:13:00;;;;;;;4.90;4.70;;;15.90;87.90;;;;;;10415900;28;20206;-79
2022/09/22 13:18:02;;;;;;;4.73;4.53;;;15.90;87.30;;;;;;10382468;28;20222;-77
2022/09/22 13:23:10;;;;;;;3.60;3.40;;;16.00;84.40;;;;;;10412508;28;20186;-80
2022/09/22 13:28:15;;;;;;;4.70;4.50;;;15.90;87.70;;;;;;10383377;28;20206;-79
2022/09/22 13:33:23;;;;;;;5.30;5.10;;;15.90;87.10;;;;;;10411528;28;20615;-80
2022/09/22 13:38:27;;;;;;;5.17;4.97;;;15.90;86.70;;;;;;10382061;28;20218;-79
2022/09/22 13:43:33;;;;;;;5.63;5.20;;;16.00;82.00;;;;;;10395898;28;20289;-79
2022/09/22 13:48:37;;;;;;;5.20;5.00;;;15.90;88.30;;;;;;10387704;28;20238;-79
2022/09/22 13:53:44;;;;;;;4.87;4.67;;;16.00;85.80;;;;;;10418186;28;20682;-79
2022/09/22 13:58:49;;;;;;;5.30;5.00;;;16.10;82.20;;;;;;10401280;28;20238;-79
2022/09/22 14:03:52;;;;;;;5.60;5.10;;;16.20;82.60;;;;;;10383003;28;20190;-79
2022/09/22 14:08:57;;;;;;;5.20;5.00;;;16.30;82.20;;;;;;10411052;28;20634;-78
2022/09/22 14:14:00;;;;;;;5.27;4.97;;;16.30;83.70;;;;;;10385053;28;20260;-79
2022/09/22 14:19:07;;;;;;;4.57;4.37;;;16.40;80.00;;;;;;10410572;28;20310;-78
2022/09/22 14:24:13;;;;;;;4.77;4.63;;;16.50;80.60;;;;;;10392436;28;20232;-78
2022/09/22 14:29:19;;;;;;;4.67;4.47;;;16.50;83.00;;;;;;10409984;28;20214;-79
2022/09/22 14:34:25;;;;;;;4.73;4.53;;;16.40;83.80;;;;;;10385156;28;20499;-79
2022/09/22 14:39:32;;;;;;;4.13;3.93;;;16.50;78.20;;;;;;10412176;28;20223;-79
2022/09/22 14:44:41;;;;;;;4.80;4.60;;;16.60;77.10;;;;;;10385353;28;20189;-80
2022/09/22 14:49:44;;;;;;;4.43;4.23;;;16.60;80.10;;;;;;10412228;28;20632;-76
2022/09/22 14:54:47;;;;;;;4.50;4.40;;;16.60;80.70;;;;;;10394899;28;20252;-79
2022/09/22 15:05:25;;;;;;;4.40;4.10;;;16.60;75.20;;;;;;10407116;28;20693;-78
2022/09/22 15:10:30;;;;;;;5.00;4.70;;;16.60;77.50;;;;;;10397193;28;20267;-79
2022/09/22 15:15:32;;;;;;;4.50;4.20;;;16.70;76.20;;;;;;10416759;28;20589;-79
2022/09/22 15:20:42;;;;;;;4.00;3.90;;;16.80;76.50;;;;;;10393438;28;20249;-77
2022/09/22 15:25:46;;;;;;;6.60;6.20;;;16.80;77.30;;;;;;10417230;28;20682;-77
2022/09/22 15:30:49;;;;;;;4.47;4.30;;;16.80;82.60;;;;;;10393137;28;20229;-78
2022/09/22 15:35:55;;;;;;;4.10;3.90;;;16.70;82.10;;;;;;10411568;28;20262;-78
2022/09/22 15:40:59;;;;;;;4.80;4.60;;;16.60;81.20;;;;;;10392858;28;20198;-78
2022/09/22 15:46:02;;;;;;;4.20;4.10;;;16.50;85.30;;;;;;10414791;28;20214;-79
2022/09/22 15:51:07;;;;;;;4.90;4.60;;;16.40;85.40;;;;;;10396334;28;20236;-79
2022/09/22 15:56:17;;;;;;;4.63;4.43;;;16.30;87.40;;;;;;10427073;28;20222;-79
2022/09/22 16:01:19;;;;;;;5.53;5.23;;;16.30;81.30;;;;;;10412293;28;20194;-78
2022/09/22 16:06:21;;;;;;;3.87;3.67;;;16.20;88.50;;;;;;10391139;28;20218;-78
2022/09/22 16:11:28;;;;;;;4.30;4.00;;;16.30;81.20;;;;;;10412576;28;20278;-79
2022/09/22 16:16:31;;;;;;;4.00;3.80;;;16.20;85.90;;;;;;10390563;28;20685;-79
2022/09/22 16:21:35;;;;;;;3.80;3.70;;;16.20;88.60;;;;;;10412608;28;20226;-79
2022/09/22 16:26:39;;;;;;;4.83;4.53;;;16.10;90.00;;;;;;10396129;28;20213;-77
2022/09/22 16:31:41;;;;;;;4.50;4.30;;;16.10;90.60;;;;;;10416403;28;20210;-78
2022/09/22 16:36:43;;;;;;;4.33;4.07;;;16.00;92.10;;;;;;10391302;28;20619;-77
2022/09/22 16:41:47;;;;;;;4.17;3.80;;;15.90;90.60;;;;;;10415078;28;20195;-78
2022/09/22 16:46:49;;;;;;;3.83;3.73;;;15.90;90.00;;;;;;10390931;28;20297;-79
2022/09/22 16:51:53;;;;;;;4.63;4.43;;;15.80;90.30;;;;;;10416528;28;20222;-79
2022/09/22 16:56:57;;;;;;;4.63;4.33;;;15.80;90.30;;;;;;10400578;28;20223;-79
2022/09/22 17:01:59;;;;;;;4.23;4.03;;;15.80;90.30;;;;;;10383726;28;20302;-77
2022/09/22 17:07:01;;;;;;;4.90;4.70;;;15.70;90.20;;;;;;10351317;28;20775;-77
2022/09/22 17:12:09;;;;;;;4.07;3.87;;;15.60;90.50;;;;;;10383306;28;20576;-77
2022/09/22 17:17:11;;;;;;;3.83;3.63;;;15.50;90.60;;;;;;10358510;28;20241;-78
2022/09/22 17:22:15;;;;;;;4.50;4.20;;;15.40;90.70;;;;;;10377213;28;20233;-77
2022/09/22 17:27:20;;;;;;;5.23;5.00;;;15.30;91.20;;;;;;10407322;28;20285;-78
2022/09/22 17:32:22;;;;;;;4.77;4.47;;;15.20;91.20;;;;;;10381905;28;20217;-77
2022/09/22 17:37:24;;;;;;;6.30;5.90;;;15.10;93.00;;;;;;10399817;28;20270;-77
2022/09/22 17:42:30;;;;;;;5.80;5.40;;;15.00;92.90;;;;;;10355225;28;20637;-77
2022/09/22 17:58:12;;;;;;;7.03;6.37;;;14.80;93.90;;;;;;10386735;28;20765;-77
2022/09/22 18:03:14;;;;;;;6.17;5.60;;;14.70;94.50;;;;;;10383754;28;20213;-77
2022/09/22 18:08:16;;;;;;;5.60;5.30;;;14.60;94.40;;;;;;10385015;28;20219;-77
2022/09/22 18:13:20;;;;;;;7.20;6.70;;;14.60;94.40;;;;;;10373442;28;20513;-77
2022/09/22 18:18:22;;;;;;;6.27;5.90;;;14.50;94.80;;;;;;10380114;28;20262;-76
2022/09/22 18:23:26;;;;;;;7.53;7.03;;;14.50;94.20;;;;;;10391981;28;20300;-78
2022/09/22 18:28:34;;;;;;;5.20;4.90;;;14.40;94.10;;;;;;10380840;28;20721;-79
2022/09/22 18:33:36;;;;;;;6.07;5.67;;;14.30;94.50;;;;;;10401298;28;20218;-77
2022/09/22 18:38:41;;;;;;;7.13;6.53;;;14.30;94.40;;;;;;10389160;28;20213;-77
2022/09/22 18:43:44;;;;;;;6.03;5.70;;;14.30;94.10;;;;;;10376592;28;20203;-77
2022/09/22 18:48:47;;;;;;;6.30;5.90;;;14.20;94.30;;;;;;10377644;28;20209;-77
2022/09/22 18:53:50;;;;;;;25.40;23.00;;;14.20;94.50;;;;;;10381999;28;20211;-77
2022/09/22 18:58:55;;;;;;;6.40;5.77;;;14.20;94.20;;;;;;10364073;28;20214;-77
2022/09/22 19:03:57;;;;;;;6.07;5.27;;;14.10;94.60;;;;;;10379194;28;20328;-78
2022/09/22 19:08:59;;;;;;;5.90;5.60;;;14.10;94.90;;;;;;10366679;28;20249;-77
2022/09/22 19:14:03;;;;;;;11.03;9.77;;;14.10;95.50;;;;;;10379628;28;20207;-77
2022/09/22 19:19:11;;;;;;;7.97;7.37;;;14.00;95.70;;;;;;10377443;28;20311;-77
2022/09/22 19:24:13;;;;;;;10.17;9.17;;;14.00;94.90;;;;;;10375079;28;20194;-77
2022/09/22 19:29:17;;;;;;;5.20;4.90;;;13.90;95.00;;;;;;10378323;28;20387;-77
2022/09/22 19:34:19;;;;;;;5.00;4.80;;;13.90;94.50;;;;;;10368942;28;20219;-77
2022/09/22 19:39:21;;;;;;;5.60;5.20;;;13.90;94.10;;;;;;10393968;28;20218;-77
2022/09/22 19:44:25;;;;;;;6.53;6.03;;;13.80;94.50;;;;;;10387672;28;20229;-77
2022/09/22 19:49:28;;;;;;;6.70;6.30;;;13.80;94.30;;;;;;10376906;28;20218;-77
2022/09/22 19:54:30;;;;;;;6.63;6.13;;;13.80;94.60;;;;;;10374266;28;20221;-77
2022/09/22 19:59:33;;;;;;;6.97;6.47;;;13.80;95.10;;;;;;10393031;28;20222;-77
2022/09/22 20:04:36;;;;;;;6.57;6.10;;;13.70;95.10;;;;;;10394802;28;20199;-77
2022/09/22 20:09:38;;;;;;;7.40;6.80;;;13.70;95.20;;;;;;10382008;28;20309;-77
2022/09/22 20:14:45;;;;;;;5.90;5.40;;;13.70;95.70;;;;;;10383608;28;20628;-77
2022/09/22 20:19:47;;;;;;;5.90;5.50;;;13.70;95.90;;;;;;10386784;28;20226;-78
2022/09/22 20:24:52;;;;;;;6.80;5.83;;;13.70;96.50;;;;;;10392112;28;20195;-77
2022/09/22 20:29:59;;;;;;;31.83;28.73;;;13.60;96.50;;;;;;10376840;28;20229;-78
2022/09/22 20:35:01;;;;;;;9.10;6.20;;;13.60;96.20;;;;;;10397473;28;20244;-78
2022/09/22 20:40:04;;;;;;;6.73;6.20;;;13.60;96.40;;;;;;10409188;28;20574;-77
2022/09/22 20:45:10;;;;;;;6.07;5.57;;;13.50;96.20;;;;;;10414118;28;20221;-77
2022/09/22 20:50:15;;;;;;;6.97;6.37;;;13.50;96.70;;;;;;10380302;28;20305;-77
2022/09/22 20:55:18;;;;;;;6.70;6.27;;;13.50;97.10;;;;;;10414913;28;20270;-77
2022/09/22 21:00:21;;;;;;;5.80;5.23;;;13.50;96.80;;;;;;10413130;28;20226;-77
2022/09/22 21:05:23;;;;;;;4.87;4.57;;;13.40;97.00;;;;;;10376876;28;20677;-77
2022/09/22 21:10:34;;;;;;;5.30;5.00;;;13.40;97.00;;;;;;10414605;28;20296;-77
2022/09/22 21:15:38;;;;;;;5.00;4.70;;;13.30;97.30;;;;;;10377717;28;20249;-79
2022/09/22 21:20:43;;;;;;;5.53;5.03;;;13.30;97.20;;;;;;10409269;28;20269;-77
2022/09/22 21:25:56;;;;;;;5.97;5.67;;;13.30;97.70;;;;;;10375683;28;20297;-78
2022/09/22 21:31:01;;;;;;;5.40;5.07;;;13.20;98.10;;;;;;10408366;28;20197;-79
2022/09/22 21:36:07;;;;;;;5.37;4.97;;;13.20;97.00;;;;;;10375634;28;20709;-78
2022/09/22 21:41:11;;;;;;;4.70;4.40;;;13.10;97.10;;;;;;10407033;28;20214;-78
2022/09/22 21:46:17;;;;;;;4.67;4.37;;;13.10;96.70;;;;;;10374597;28;20205;-78
2022/09/22 21:51:21;;;;;;;6.03;5.43;;;13.00;96.50;;;;;;10407653;28;20297;-78
2022/09/22 21:56:25;;;;;;;5.40;5.00;;;12.90;96.80;;;;;;10378190;28;20310;-79
2022/09/22 22:01:30;;;;;;;4.67;4.37;;;12.80;97.00;;;;;;10396220;28;20277;-79
2022/09/22 22:06:36;;;;;;;4.77;4.57;;;12.80;96.40;;;;;;10418594;28;20207;-79
2022/09/22 22:11:40;;;;;;;6.50;6.00;;;12.70;96.40;;;;;;10397198;28;20189;-78
2022/09/22 22:16:45;;;;;;;6.70;6.10;;;12.60;96.80;;;;;;10439993;28;20256;-79
2022/09/22 22:21:49;;;;;;;5.87;5.47;;;12.60;97.80;;;;;;10382677;28;20198;-79
2022/09/22 22:26:53;;;;;;;5.20;4.90;;;12.50;97.50;;;;;;10412903;28;20221;-78
2022/09/22 22:31:56;;;;;;;5.47;5.17;;;12.50;97.30;;;;;;10376808;28;20202;-77
2022/09/22 22:36:59;;;;;;;6.80;5.70;;;12.50;97.90;;;;;;10412653;28;20376;-79
2022/09/22 22:42:01;;;;;;;6.00;5.50;;;12.40;97.60;;;;;;10376318;28;20194;-79
2022/09/22 22:47:05;;;;;;;6.97;6.47;;;12.40;97.10;;;;;;10418859;28;20308;-77
2022/09/22 22:52:07;;;;;;;5.03;4.60;;;12.40;96.90;;;;;;10374322;28;20252;-77
2022/09/22 22:57:09;;;;;;;5.50;5.17;;;12.30;97.20;;;;;;10398574;28;20229;-78
2022/09/22 23:02:12;;;;;;;5.73;5.33;;;12.30;97.10;;;;;;10412799;28;20513;-78
2022/09/22 23:07:14;;;;;;;5.00;4.70;;;12.20;97.40;;;;;;10377951;28;20300;-77
2022/09/22 23:12:17;;;;;;;10.87;8.93;;;12.10;97.10;;;;;;10421638;28;20209;-77
2022/09/22 23:17:20;;;;;;;5.60;5.10;;;12.10;97.60;;;;;;10376909;28;20218;-78
2022/09/22 23:22:22;;;;;;;6.20;5.80;;;12.00;97.20;;;;;;10410983;28;20269;-78
2022/09/22 23:27:25;;;;;;;5.67;5.30;;;12.00;97.40;;;;;;10373527;28;20565;-78
2022/09/22 23:32:28;;;;;;;4.60;4.33;;;11.90;97.50;;;;;;10421796;28;20205;-78
2022/09/22 23:37:30;;;;;;;4.80;4.33;;;11.80;98.10;;;;;;10340853;28;20282;-78
2022/09/22 23:42:32;;;;;;;5.03;4.73;;;11.80;97.10;;;;;;10426707;28;20627;-78
2022/09/22 23:47:36;;;;;;;4.87;4.57;;;11.70;97.30;;;;;;10378995;28;20214;-77
2022/09/22 23:52:38;;;;;;;4.80;4.50;;;11.70;97.20;;;;;;10419073;28;20205;-78
2022/09/22 23:57:40;;;;;;;4.40;4.10;;;11.60;97.50;;;;;;10401750;28;20309;-78
